| time (UTC) | temp F | wind direction | speed knots | gust knots | rain 1hr in | rain 24hr in | rain mn in | humidity % | barometer mb |
| 20260502190006 | 57 | 310 | 1.7 | 1.7 | 0.00 | 0.00 | 0.00 | 28 | 1018.3 |
| 20260502185503 | 57 | 310 | 1.7 | 1.7 | 0.00 | 0.00 | 0.00 | 28 | 1018.3 |
| 20260502185003 | 57 | 310 | 1.7 | 1.7 | 0.00 | 0.00 | 0.00 | 28 | 1018.3 |
| 20260502184504 | 57 | 310 | 1.7 | 1.7 | 0.00 | 0.00 | 0.00 | 28 | 1018.3 |
| 20260502183503 | 57 | 310 | 1.7 | 1.7 | 0.00 | 0.00 | 0.00 | 28 | 1018.3 |
| 20260502183003 | 57 | 310 | 1.7 | 1.7 | 0.00 | 0.00 | 0.00 | 28 | 1018.3 |
| 20260502182503 | 57 | 310 | 1.7 | 1.7 | 0.00 | 0.00 | 0.00 | 28 | 1018.3 |
| 20260502181504 | 57 | 310 | 1.7 | 1.7 | 0.00 | 0.00 | 0.00 | 28 | 1018.3 |
| 20260502180503 | 57 | 310 | 1.7 | 1.7 | 0.00 | 0.00 | 0.00 | 28 | 1018.3 |
| 20260502170503 | 56 | 310 | 1.7 | 1.7 | 0.00 | 0.00 | 0.00 | 29 | 1019.0 |
| 20260502162503 | 53 | 310 | 1.7 | 1.7 | 0.00 | 0.00 | 0.00 | 32 | 1019.6 |
| 20260502161503 | 53 | 310 | 1.7 | 1.7 | 0.00 | 0.00 | 0.00 | 32 | 1019.6 |
| 20260502161004 | 53 | 310 | 1.7 | 1.7 | 0.00 | 0.00 | 0.00 | 32 | 1019.6 |
| 20260502160504 | 53 | 310 | 1.7 | 1.7 | 0.00 | 0.00 | 0.00 | 32 | 1019.6 |
| 20260502151004 | 51 | 310 | 1.7 | 1.7 | 0.00 | 0.00 | 0.00 | 37 | 1020.0 |
| 20260502150503 | 51 | 310 | 1.7 | 1.7 | 0.00 | 0.00 | 0.00 | 37 | 1020.0 |
| 20260502130503 | 43 | 310 | 1.7 | 1.7 | 0.00 | 0.00 | 0.00 | 55 | 1020.0 |
| 20260502123504 | 33 | 309 | 0.9 | 1.7 | 0.00 | 0.00 | 0.00 | 75 | 1019.6 |
| 20260502123004 | 33 | 327 | 0.9 | 0.9 | 0.00 | 0.00 | 0.00 | 75 | 1019.6 |
| 20260502122003 | 33 | 307 | 0.9 | 0.9 | 0.00 | 0.00 | 0.00 | 75 | 1019.6 |
| 20260502121503 | 33 | 311 | 0.9 | 0.9 | 0.00 | 0.00 | 0.00 | 75 | 1019.6 |
| 20260502121003 | 33 | 304 | 0.9 | 0.9 | 0.00 | 0.00 | 0.00 | 75 | 1019.6 |
| 20260502120503 | 33 | 348 | 0.0 | 0.9 | 0.00 | 0.00 | 0.00 | 75 | 1019.6 |
| 20260502115503 | 31 | 270 | 0.0 | 0.9 | 0.00 | 0.00 | 0.00 | 75 | 1019.6 |
| 20260502115003 | 31 | 283 | 0.0 | 0.9 | 0.00 | 0.00 | 0.00 | 75 | 1019.6 |
| 20260502114504 | 31 | 324 | 0.0 | 0.9 | 0.00 | 0.00 | 0.00 | 75 | 1019.6 |
| 20260502114004 | 31 | 323 | 0.0 | 0.9 | 0.00 | 0.00 | 0.00 | 75 | 1019.6 |
| 20260502113503 | 31 | 332 | 0.0 | 0.9 | 0.00 | 0.00 | 0.00 | 75 | 1019.6 |
| 20260502113003 | 31 | 299 | 0.0 | 0.9 | 0.00 | 0.00 | 0.00 | 75 | 1019.6 |
| 20260502112503 | 31 | 335 | 0.0 | 0.9 | 0.00 | 0.00 | 0.00 | 75 | 1019.6 |
| 20260502112003 | 31 | 323 | 0.0 | 0.9 | 0.00 | 0.00 | 0.00 | 75 | 1019.6 |
| 20260502111503 | 31 | 269 | 0.0 | 0.9 | 0.00 | 0.00 | 0.00 | 75 | 1019.6 |
| 20260502110003 | 31 | 295 | 0.0 | 0.9 | 0.00 | 0.00 | 0.00 | 75 | 1019.3 |
| 20260502105503 | 31 | 315 | 0.0 | 0.9 | 0.00 | 0.00 | 0.00 | 75 | 1019.3 |
| 20260502105003 | 31 | 315 | 0.9 | 0.9 | 0.00 | 0.00 | 0.00 | 75 | 1019.3 |
| 20260502104502 | 31 | 330 | 0.0 | 0.9 | 0.00 | 0.00 | 0.00 | 75 | 1019.3 |
| 20260502104003 | 31 | 283 | 0.0 | 0.9 | 0.00 | 0.00 | 0.00 | 75 | 1019.3 |
| 20260502103503 | 31 | 317 | 0.0 | 0.9 | 0.00 | 0.00 | 0.00 | 75 | 1019.3 |
| 20260502102003 | 31 | 293 | 0.0 | 0.9 | 0.00 | 0.00 | 0.00 | 75 | 1019.3 |
| 20260502101502 | 31 | 311 | 0.0 | 0.9 | 0.00 | 0.00 | 0.00 | 75 | 1019.3 |
| 20260502101003 | 31 | 312 | 0.0 | 0.0 | 0.00 | 0.00 | 0.00 | 75 | 1019.3 |
| 20260502100503 | 31 | 282 | 0.0 | 0.0 | 0.00 | 0.00 | 0.00 | 75 | 1019.3 |
| 20260502091503 | 30 | 175 | 0.9 | 0.9 | 0.00 | 0.00 | 0.00 | 81 | 1019.3 |
| 20260502091002 | 30 | 222 | 0.0 | 0.9 | 0.00 | 0.00 | 0.00 | 81 | 1019.3 |
| 20260502071503 | 34 | 142 | 0.0 | 0.0 | 0.00 | 0.00 | 0.00 | 69 | 1019.6 |
| 20260502070503 | 34 | 208 | 0.0 | 0.9 | 0.00 | 0.00 | 0.00 | 69 | 1019.6 |
| 20260502070003 | 35 | 192 | 0.0 | 0.9 | 0.00 | 0.00 | 0.00 | 66 | 1019.6 |
| 20260502065503 | 35 | 311 | 0.9 | 0.9 | 0.00 | 0.00 | 0.00 | 66 | 1019.6 |
| 20260502065003 | 35 | 307 | 0.0 | 0.9 | 0.00 | 0.00 | 0.00 | 66 | 1019.6 |
| 20260502064503 | 35 | 312 | 0.0 | 0.9 | 0.00 | 0.00 | 0.00 | 66 | 1019.6 |
| 20260502064003 | 35 | 301 | 0.0 | 0.0 | 0.00 | 0.00 | 0.00 | 66 | 1019.6 |
| 20260502063503 | 35 | 254 | 0.0 | 0.9 | 0.00 | 0.00 | 0.00 | 66 | 1019.6 |
| 20260502062504 | 35 | 168 | 0.0 | 0.0 | 0.00 | 0.00 | 0.00 | 66 | 1019.6 |
| 20260502061503 | 35 | 153 | 0.0 | 0.9 | 0.00 | 0.00 | 0.00 | 66 | 1019.6 |
| 20260502061004 | 35 | 312 | 0.0 | 0.9 | 0.00 | 0.00 | 0.00 | 66 | 1019.6 |
| 20260502055503 | 37 | 158 | 0.0 | 0.0 | 0.00 | 0.00 | 0.00 | 61 | 1019.3 |
| 20260502055003 | 37 | 162 | 0.0 | 0.9 | 0.00 | 0.00 | 0.00 | 61 | 1019.3 |
| 20260502054503 | 37 | 310 | 0.9 | 0.9 | 0.00 | 0.00 | 0.00 | 61 | 1019.3 |
| 20260502054003 | 37 | 211 | 0.0 | 0.9 | 0.00 | 0.00 | 0.00 | 61 | 1019.3 |
| 20260502053504 | 37 | 222 | 0.0 | 0.9 | 0.00 | 0.00 | 0.00 | 61 | 1019.3 |
| 20260502052504 | 37 | 188 | 0.0 | 0.9 | 0.00 | 0.00 | 0.00 | 61 | 1019.3 |
| 20260502052003 | 37 | 187 | 0.9 | 0.9 | 0.00 | 0.00 | 0.00 | 61 | 1019.3 |
| 20260502051003 | 37 | 307 | 0.9 | 0.9 | 0.00 | 0.00 | 0.00 | 61 | 1019.3 |
| 20260502050004 | 39 | 199 | 0.0 | 0.9 | 0.00 | 0.00 | 0.00 | 59 | 1019.3 |
| 20260502045503 | 39 | 182 | 0.0 | 0.9 | 0.00 | 0.00 | 0.00 | 59 | 1019.3 |
| 20260502045003 | 39 | 172 | 0.0 | 0.9 | 0.00 | 0.00 | 0.00 | 59 | 1019.3 |
| 20260502044504 | 39 | 185 | 0.9 | 0.9 | 0.00 | 0.00 | 0.00 | 59 | 1019.3 |
| 20260502044003 | 39 | 151 | 0.0 | 1.7 | 0.00 | 0.00 | 0.00 | 59 | 1019.3 |
| 20260502043503 | 39 | 313 | 1.7 | 1.7 | 0.00 | 0.00 | 0.00 | 59 | 1019.3 |
| 20260502043003 | 39 | 315 | 0.9 | 1.7 | 0.00 | 0.00 | 0.00 | 59 | 1019.3 |
| 20260502042003 | 39 | 197 | 0.0 | 0.9 | 0.00 | 0.00 | 0.00 | 59 | 1019.3 |
| 20260502041503 | 39 | 172 | 0.0 | 0.9 | 0.00 | 0.00 | 0.00 | 59 | 1019.3 |
| 20260502041004 | 39 | 190 | 0.0 | 0.9 | 0.00 | 0.00 | 0.00 | 59 | 1019.3 |
| 20260502040503 | 39 | 276 | 0.9 | 1.7 | 0.00 | 0.00 | 0.00 | 59 | 1019.3 |
| 20260502040003 | 41 | 316 | 1.7 | 1.7 | 0.00 | 0.00 | 0.00 | 54 | 1019.0 |
| 20260502035503 | 41 | 312 | 0.9 | 1.7 | 0.00 | 0.00 | 0.00 | 54 | 1019.0 |
| 20260502034503 | 41 | 318 | 0.9 | 1.7 | 0.00 | 0.00 | 0.00 | 54 | 1019.0 |
| 20260502034003 | 41 | 308 | 0.9 | 1.7 | 0.00 | 0.00 | 0.00 | 54 | 1019.0 |
| 20260502033503 | 41 | 270 | 1.7 | 1.7 | 0.00 | 0.00 | 0.00 | 54 | 1019.0 |
| 20260502032504 | 41 | 329 | 1.7 | 2.6 | 0.00 | 0.00 | 0.00 | 54 | 1019.0 |
| 20260502032004 | 41 | 317 | 1.7 | 2.6 | 0.00 | 0.00 | 0.00 | 54 | 1019.0 |
| 20260502031504 | 41 | 326 | 0.9 | 1.7 | 0.00 | 0.00 | 0.00 | 54 | 1019.0 |
| 20260502031004 | 41 | 323 | 0.9 | 1.7 | 0.00 | 0.00 | 0.00 | 54 | 1019.0 |
| 20260502030503 | 41 | 316 | 0.9 | 1.7 | 0.00 | 0.00 | 0.00 | 54 | 1019.0 |
| 20260502025503 | 41 | 193 | 0.0 | 0.9 | 0.00 | 0.00 | 0.00 | 52 | 1018.6 |
| 20260502025003 | 41 | 341 | 0.9 | 1.7 | 0.00 | 0.00 | 0.00 | 52 | 1018.6 |
| 20260502024504 | 41 | 326 | 1.7 | 2.6 | 0.00 | 0.00 | 0.00 | 52 | 1018.6 |
| 20260502024004 | 41 | 320 | 0.9 | 2.6 | 0.00 | 0.00 | 0.00 | 52 | 1018.6 |
| 20260502023503 | 41 | 321 | 1.7 | 2.6 | 0.00 | 0.00 | 0.00 | 52 | 1018.6 |
| 20260502022504 | 41 | 319 | 1.7 | 4.3 | 0.00 | 0.00 | 0.00 | 52 | 1018.6 |
| 20260502022004 | 41 | 320 | 2.6 | 2.6 | 0.00 | 0.00 | 0.00 | 52 | 1018.6 |
| 20260502021004 | 41 | 341 | 1.7 | 2.6 | 0.00 | 0.00 | 0.00 | 52 | 1018.6 |
| 20260502020504 | 41 | 324 | 1.7 | 2.6 | 0.00 | 0.00 | 0.00 | 52 | 1018.6 |
| 20260502020004 | 48 | 321 | 1.7 | 2.6 | 0.00 | 0.00 | 0.00 | 36 | 1017.9 |
| 20260502015504 | 48 | 325 | 1.7 | 2.6 | 0.00 | 0.00 | 0.00 | 36 | 1017.9 |
| 20260502015004 | 48 | 323 | 2.6 | 4.3 | 0.00 | 0.00 | 0.00 | 36 | 1017.9 |
| 20260502014004 | 48 | 318 | 1.7 | 4.3 | 0.00 | 0.00 | 0.00 | 36 | 1017.9 |
| 20260502013504 | 48 | 323 | 1.7 | 4.3 | 0.00 | 0.00 | 0.00 | 36 | 1017.9 |
| 20260502013005 | 48 | 330 | 1.7 | 2.6 | 0.00 | 0.00 | 0.00 | 36 | 1017.9 |
| 20260502012504 | 48 | 325 | 1.7 | 2.6 | 0.00 | 0.00 | 0.00 | 36 | 1017.9 |
| 20260502012005 | 48 | 328 | 2.6 | 5.2 | 0.00 | 0.00 | 0.00 | 36 | 1017.9 |
| 20260502011504 | 48 | 323 | 2.6 | 5.2 | 0.00 | 0.00 | 0.00 | 36 | 1017.9 |
| 20260502011004 | 48 | 335 | 1.7 | 5.2 | 0.00 | 0.00 | 0.00 | 36 | 1017.9 |
| 20260502010504 | 48 | 336 | 2.6 | 5.2 | 0.00 | 0.00 | 0.00 | 36 | 1017.9 |
| 20260502010004 | 50 | 322 | 2.6 | 5.2 | 0.00 | 0.00 | 0.00 | 34 | 1017.6 |
| 20260502005504 | 50 | 321 | 1.7 | 4.3 | 0.00 | 0.00 | 0.00 | 34 | 1017.6 |
| 20260502005005 | 50 | 334 | 1.7 | 2.6 | 0.00 | 0.00 | 0.00 | 34 | 1017.6 |
| 20260502004504 | 50 | 328 | 2.6 | 5.2 | 0.00 | 0.00 | 0.00 | 34 | 1017.6 |
| 20260502003504 | 50 | 334 | 3.5 | 5.2 | 0.00 | 0.00 | 0.00 | 34 | 1017.6 |
| 20260502003004 | 50 | 321 | 3.5 | 6.1 | 0.00 | 0.00 | 0.00 | 34 | 1017.6 |
| 20260502002504 | 50 | 330 | 4.3 | 7.0 | 0.00 | 0.00 | 0.00 | 34 | 1017.6 |
| 20260502000505 | 50 | 326 | 4.3 | 7.8 | 0.00 | 0.00 | 0.00 | 34 | 1017.6 |
| 20260502000004 | 51 | 323 | 2.6 | 5.2 | 0.00 | 0.00 | 0.00 | 34 | 1017.6 |
| 20260501235004 | 51 | 327 | 4.3 | 7.0 | 0.00 | 0.00 | 0.00 | 34 | 1017.6 |
| 20260501234004 | 51 | 328 | 5.2 | 7.8 | 0.00 | 0.00 | 0.00 | 34 | 1017.6 |
| 20260501233505 | 51 | 324 | 5.2 | 11.3 | 0.00 | 0.00 | 0.00 | 34 | 1017.6 |
| 20260501233004 | 51 | 332 | 4.3 | 7.0 | 0.00 | 0.00 | 0.00 | 34 | 1017.6 |
| 20260501232505 | 51 | 342 | 4.3 | 6.1 | 0.00 | 0.00 | 0.00 | 34 | 1017.6 |
| 20260501232004 | 51 | 353 | 4.3 | 7.0 | 0.00 | 0.00 | 0.00 | 34 | 1017.6 |
| 20260501231504 | 51 | 333 | 5.2 | 10.4 | 0.00 | 0.00 | 0.00 | 34 | 1017.6 |
| 20260501231005 | 51 | 332 | 6.1 | 8.7 | 0.00 | 0.00 | 0.00 | 34 | 1017.6 |
| 20260501230504 | 51 | 332 | 5.2 | 10.4 | 0.00 | 0.00 | 0.00 | 34 | 1017.6 |
| 20260501225504 | 52 | 328 | 4.3 | 6.1 | 0.00 | 0.00 | 0.00 | 31 | 1017.3 |
| 20260501225004 | 52 | 332 | 5.2 | 8.7 | 0.00 | 0.00 | 0.00 | 31 | 1017.3 |
| 20260501224505 | 52 | 321 | 5.2 | 8.7 | 0.00 | 0.00 | 0.00 | 31 | 1017.3 |
| 20260501224004 | 52 | 350 | 2.6 | 7.0 | 0.00 | 0.00 | 0.00 | 31 | 1017.3 |
| 20260501223505 | 52 | 336 | 5.2 | 8.7 | 0.00 | 0.00 | 0.00 | 31 | 1017.3 |
| 20260501222505 | 52 | 341 | 3.5 | 5.2 | 0.00 | 0.00 | 0.00 | 31 | 1017.3 |
| 20260501222004 | 52 | 326 | 5.2 | 8.7 | 0.00 | 0.00 | 0.00 | 31 | 1017.3 |
| 20260501221505 | 52 | 334 | 6.1 | 11.3 | 0.00 | 0.00 | 0.00 | 31 | 1017.3 |
| 20260501221005 | 52 | 324 | 5.2 | 11.3 | 0.00 | 0.00 | 0.00 | 31 | 1017.3 |
| 20260501220505 | 52 | 331 | 5.2 | 13.0 | 0.00 | 0.00 | 0.00 | 31 | 1017.3 |
| 20260501220004 | 52 | 331 | 5.2 | 10.4 | 0.00 | 0.00 | 0.00 | 31 | 1017.3 |
| 20260501215004 | 52 | 319 | 3.5 | 8.7 | 0.00 | 0.00 | 0.00 | 31 | 1017.3 |
| 20260501214505 | 52 | 331 | 4.3 | 8.7 | 0.00 | 0.00 | 0.00 | 31 | 1017.3 |
| 20260501214004 | 52 | 312 | 4.3 | 7.8 | 0.00 | 0.00 | 0.00 | 31 | 1017.3 |
| 20260501213505 | 52 | 7 | 1.7 | 7.8 | 0.00 | 0.00 | 0.00 | 31 | 1017.3 |
| 20260501213004 | 52 | 349 | 2.6 | 5.2 | 0.00 | 0.00 | 0.00 | 31 | 1017.3 |
| 20260501212505 | 52 | 342 | 5.2 | 7.8 | 0.00 | 0.00 | 0.00 | 31 | 1017.3 |
| 20260501212005 | 52 | 8 | 4.3 | 7.8 | 0.00 | 0.00 | 0.00 | 31 | 1017.3 |
| 20260501211005 | 52 | 6 | 1.7 | 6.1 | 0.00 | 0.00 | 0.00 | 31 | 1017.3 |
| 20260501210505 | 52 | 9 | 5.2 | 11.3 | 0.00 | 0.00 | 0.00 | 31 | 1017.3 |
| 20260501205505 | 52 | 333 | 3.5 | 7.8 | 0.00 | 0.00 | 0.00 | 33 | 1017.6 |
| 20260501204003 | 52 | 67 | 2.6 | 6.1 | 0.00 | 0.00 | 0.00 | 33 | 1017.6 |
| 20260501203503 | 52 | 37 | 1.7 | 7.0 | 0.00 | 0.00 | 0.00 | 33 | 1017.6 |
| 20260501202503 | 52 | 0 | 3.5 | 7.0 | 0.00 | 0.00 | 0.00 | 33 | 1017.6 |
| 20260501202003 | 52 | 317 | 4.3 | 7.8 | 0.00 | 0.00 | 0.00 | 33 | 1017.6 |
| 20260501201503 | 52 | 345 | 3.5 | 6.1 | 0.00 | 0.00 | 0.00 | 33 | 1017.6 |
| 20260501200503 | 52 | 4 | 3.5 | 7.0 | 0.00 | 0.00 | 0.00 | 33 | 1017.6 |
| 20260501200004 | 51 | 85 | 1.7 | 5.2 | 0.00 | 0.00 | 0.00 | 35 | 1017.3 |
| 20260501195503 | 51 | 327 | 4.3 | 7.0 | 0.00 | 0.00 | 0.00 | 35 | 1017.3 |
| 20260501195003 | 51 | 1 | 4.3 | 7.0 | 0.00 | 0.00 | 0.00 | 35 | 1017.3 |
| 20260501194004 | 51 | 332 | 5.2 | 11.3 | 0.00 | 0.00 | 0.00 | 35 | 1017.3 |
| 20260501193503 | 51 | 353 | 4.3 | 13.0 | 0.00 | 0.00 | 0.00 | 35 | 1017.3 |
| 20260501193003 | 51 | 329 | 6.1 | 13.9 | 0.00 | 0.00 | 0.00 | 35 | 1017.3 |
| 20260501192503 | 51 | 334 | 4.3 | 7.8 | 0.00 | 0.00 | 0.00 | 35 | 1017.3 |
| 20260501192004 | 51 | 106 | 4.3 | 7.8 | 0.00 | 0.00 | 0.00 | 35 | 1017.3 |
| 20260501191503 | 51 | 330 | 4.3 | 7.8 | 0.00 | 0.00 | 0.00 | 35 | 1017.3 |
| 20260501191003 | 51 | 337 | 4.3 | 8.7 | 0.00 | 0.00 | 0.00 | 35 | 1017.3 |
| 20260501190503 | 51 | 327 | 6.1 | 11.3 | 0.00 | 0.00 | 0.00 | 35 | 1017.3 |